createdAt,value
2023-03-02T00:01:50.371Z,28.50
2023-03-02T00:04:58.480Z,30.10
2023-03-02T00:08:00.542Z,28.55
2023-03-02T00:11:02.439Z,29.02
2023-03-02T00:14:03.437Z,31.02
2023-03-02T00:17:05.751Z,28.92
2023-03-02T00:20:11.165Z,29.08
2023-03-02T00:23:12.298Z,30.58
2023-03-02T00:26:13.135Z,30.00
2023-03-02T00:29:14.757Z,29.50
2023-03-02T00:32:18.290Z,29.27
2023-03-02T00:35:19.488Z,28.60
2023-03-02T00:38:20.614Z,28.60
2023-03-02T00:41:22.149Z,28.35
2023-03-02T00:44:23.052Z,27.77
2023-03-02T00:47:24.445Z,28.33
2023-03-02T00:50:25.277Z,29.83
2023-03-02T00:53:25.942Z,28.45
2023-03-02T00:56:27.316Z,27.60
2023-03-02T00:59:27.982Z,29.58
2023-03-02T01:02:44.498Z,30.00
2023-03-02T01:05:49.285Z,28.27
2023-03-02T01:08:50.173Z,28.45
2023-03-02T01:11:51.864Z,29.67
2023-03-02T01:14:52.785Z,27.20
2023-03-02T01:17:53.535Z,28.17
2023-03-02T01:21:04.330Z,29.58
2023-03-02T01:24:06.258Z,28.88
2023-03-02T01:27:07.502Z,28.67
2023-03-02T01:30:09.574Z,28.92
2023-03-02T01:33:10.486Z,29.85
2023-03-02T01:36:11.326Z,29.73
2023-03-02T01:39:16.568Z,27.65
2023-03-02T01:42:17.944Z,28.13
2023-03-02T01:45:41.268Z,27.92
2023-03-02T01:49:13.722Z,28.13
2023-03-02T01:52:33.605Z,28.98
2023-03-02T01:55:39.110Z,29.20
2023-03-02T01:58:40.478Z,28.52
2023-03-02T02:01:47.172Z,28.98
2023-03-02T02:04:50.092Z,29.33
2023-03-02T02:07:51.412Z,26.73
2023-03-02T02:10:54.472Z,27.13
2023-03-02T02:14:00.221Z,26.85
2023-03-02T02:17:02.177Z,27.67
2023-03-02T02:20:07.450Z,28.25
2023-03-02T02:23:59.423Z,27.92
2023-03-02T02:27:01.470Z,28.95
2023-03-02T02:30:07.318Z,28.25
2023-03-02T02:33:19.699Z,29.20
2023-03-02T02:36:33.662Z,29.00
2023-03-02T02:39:45.011Z,27.73
2023-03-02T02:42:51.489Z,29.65
2023-03-02T02:45:58.098Z,28.48
2023-03-02T02:49:02.248Z,27.65
2023-03-02T02:52:06.705Z,29.10
2023-03-02T02:55:16.738Z,28.38
2023-03-02T02:58:51.010Z,28.52
2023-03-02T03:01:53.070Z,29.48
2023-03-02T03:05:03.342Z,28.52
2023-03-02T03:08:09.929Z,28.90
2023-03-02T03:11:26.604Z,29.15
2023-03-02T03:14:39.348Z,29.73
2023-03-02T03:17:41.474Z,27.17
2023-03-02T03:20:42.207Z,30.42
2023-03-02T03:23:42.851Z,28.38
2023-03-02T03:26:45.175Z,31.10
2023-03-02T03:29:50.391Z,30.67
2023-03-02T03:32:53.264Z,29.63
2023-03-02T03:35:55.012Z,32.17
2023-03-02T03:38:58.310Z,31.70
2023-03-02T03:41:59.909Z,30.08
2023-03-02T03:45:01.393Z,31.10
2023-03-02T03:48:02.370Z,31.42
2023-03-02T03:51:04.735Z,31.67
2023-03-02T03:54:09.145Z,30.27
2023-03-02T03:57:13.027Z,30.98
2023-03-02T04:00:19.615Z,31.77
2023-03-02T04:03:26.268Z,29.63
2023-03-02T04:06:27.746Z,32.42
2023-03-02T04:09:29.406Z,31.38
2023-03-02T04:12:35.654Z,31.80
2023-03-02T04:15:37.020Z,29.67
2023-03-02T04:18:37.858Z,29.90
2023-03-02T04:21:46.716Z,31.75
2023-03-02T04:24:50.980Z,32.42
2023-03-02T04:27:54.210Z,30.98
2023-03-02T04:30:57.361Z,31.83
2023-03-02T04:34:00.821Z,31.40
2023-03-02T04:37:02.229Z,32.55
2023-03-02T04:40:04.486Z,31.15
2023-03-02T04:43:05.215Z,29.20
2023-03-02T04:46:06.109Z,32.55
2023-03-02T04:49:07.725Z,30.55
2023-03-02T04:52:08.416Z,31.17
2023-03-02T04:55:16.490Z,32.05
2023-03-02T04:58:17.774Z,32.20
2023-03-02T05:01:20.390Z,32.28
2023-03-02T05:04:21.825Z,32.00
2023-03-02T05:07:22.745Z,32.88
2023-03-02T05:10:23.730Z,32.65
2023-03-02T05:13:26.371Z,33.58
2023-03-02T05:16:32.098Z,33.75
2023-03-02T05:19:32.931Z,33.63
2023-03-02T05:22:33.864Z,32.08
2023-03-02T05:25:37.355Z,33.30
2023-03-02T05:28:39.409Z,33.42
2023-03-02T05:31:44.341Z,34.63
2023-03-02T05:34:45.561Z,34.03
2023-03-02T05:37:46.807Z,34.22
2023-03-02T05:40:48.524Z,33.70
2023-03-02T05:43:49.620Z,32.72
2023-03-02T05:46:50.737Z,33.60
2023-03-02T05:49:51.518Z,33.95
2023-03-02T05:52:52.317Z,32.05
2023-03-02T05:55:54.324Z,32.47
2023-03-02T05:58:55.126Z,34.33
2023-03-02T06:01:59.091Z,32.63
2023-03-02T06:05:00.168Z,32.67
2023-03-02T06:08:00.915Z,32.58
2023-03-02T06:11:01.839Z,34.30
2023-03-02T06:14:02.696Z,34.78
2023-03-02T06:17:03.356Z,33.25
2023-03-02T06:20:10.530Z,32.88
2023-03-02T06:23:12.142Z,33.00
2023-03-02T06:26:13.448Z,33.92
2023-03-02T06:29:14.316Z,35.20
2023-03-02T06:32:15.134Z,32.33
2023-03-02T06:35:16.875Z,34.95
2023-03-02T06:38:18.444Z,34.83
2023-03-02T06:41:19.411Z,33.42
2023-03-02T06:44:20.707Z,33.53
2023-03-02T06:47:23.651Z,33.40
2023-03-02T06:50:25.051Z,32.25
2023-03-02T06:53:26.338Z,31.70
2023-03-02T06:56:27.148Z,33.55
2023-03-02T06:59:28.351Z,32.97
2023-03-02T07:02:29.102Z,32.88
2023-03-02T07:05:32.383Z,33.35
2023-03-02T07:08:34.039Z,31.65
2023-03-02T07:11:35.363Z,32.95
2023-03-02T07:14:36.898Z,32.92
2023-03-02T07:17:39.312Z,31.92
2023-03-02T07:20:40.313Z,33.20
2023-03-02T07:23:41.720Z,33.63
2023-03-02T07:26:42.394Z,33.78
2023-03-02T07:29:43.249Z,32.63
2023-03-02T07:32:44.439Z,34.55
2023-03-02T07:35:45.076Z,34.85
2023-03-02T07:38:45.961Z,33.80
2023-03-02T07:41:47.230Z,33.92
2023-03-02T07:44:48.632Z,33.53
2023-03-02T07:47:49.404Z,32.13
2023-03-02T07:50:50.286Z,31.00
2023-03-02T07:53:51.176Z,32.58
2023-03-02T07:56:52.166Z,33.72
2023-03-02T07:59:53.052Z,31.65
2023-03-02T08:02:54.154Z,32.88
2023-03-02T08:05:55.645Z,34.55
2023-03-02T08:08:57.280Z,36.22
2023-03-02T08:11:58.177Z,33.28
2023-03-02T08:14:59.172Z,33.90
2023-03-02T08:18:00.551Z,31.63
2023-03-02T08:21:01.838Z,31.75
2023-03-02T08:24:03.639Z,33.97
2023-03-02T08:27:05.260Z,33.33
2023-03-02T08:30:08.162Z,35.15
2023-03-02T08:33:09.117Z,34.15
2023-03-02T08:36:17.040Z,30.50
2023-03-02T08:39:18.386Z,30.33
2023-03-02T08:42:19.638Z,30.50
2023-03-02T08:45:21.106Z,29.58
2023-03-02T08:48:22.676Z,31.55
2023-03-02T08:51:26.472Z,33.22
2023-03-02T08:54:27.567Z,33.17
2023-03-02T08:57:28.676Z,31.48
2023-03-02T09:00:31.705Z,30.60
2023-03-02T09:03:32.736Z,32.22
2023-03-02T09:06:39.343Z,30.55
2023-03-02T09:09:40.119Z,29.67
2023-03-02T09:12:40.909Z,32.83
2023-03-02T09:15:41.659Z,29.10
2023-03-02T09:18:42.599Z,30.08
2023-03-02T09:21:43.398Z,31.20
2023-03-02T09:24:44.326Z,29.65
2023-03-02T09:27:47.241Z,32.38
2023-03-02T09:30:54.988Z,30.50
2023-03-02T09:36:58.351Z,29.80
2023-03-02T09:39:59.172Z,29.00
2023-03-02T09:43:51.900Z,29.42
2023-03-02T09:47:02.418Z,30.52
2023-03-02T09:50:33.563Z,29.02
2023-03-02T09:53:53.231Z,29.05
2023-03-02T09:56:57.971Z,29.25
2023-03-02T10:00:21.862Z,28.08
2023-03-02T10:03:32.196Z,28.85
2023-03-02T10:06:33.318Z,29.92
2023-03-02T10:09:34.398Z,27.55
2023-03-02T10:12:51.379Z,26.25
2023-03-02T10:16:18.255Z,28.55
2023-03-02T10:19:42.597Z,30.50
2023-03-02T10:22:52.908Z,28.38
2023-03-02T10:26:02.879Z,28.45
2023-03-02T10:29:18.823Z,29.73
2023-03-02T10:32:31.969Z,31.05
2023-03-02T10:35:34.564Z,27.10
2023-03-02T10:38:37.915Z,27.23
2023-03-02T10:41:47.339Z,28.88
2023-03-02T10:44:57.306Z,26.23
2023-03-02T10:48:08.264Z,28.38
2023-03-02T10:51:26.015Z,28.88
2023-03-02T10:54:28.960Z,28.38
2023-03-02T10:57:38.052Z,27.77
2023-03-02T11:00:38.742Z,28.90
2023-03-02T11:03:40.111Z,27.52
2023-03-02T11:06:40.838Z,28.83
2023-03-02T11:09:41.717Z,29.40
2023-03-02T11:12:51.274Z,30.02
2023-03-02T11:16:01.614Z,26.58
2023-03-02T11:19:19.573Z,28.98
2023-03-02T11:23:07.721Z,29.70
2023-03-02T11:26:31.042Z,26.02
2023-03-02T11:29:47.623Z,29.40
2023-03-02T11:33:15.282Z,27.63
2023-03-02T11:36:24.032Z,25.65
2023-03-02T11:40:04.684Z,28.50
2023-03-02T11:43:05.879Z,26.40
2023-03-02T11:46:22.318Z,26.70
2023-03-02T11:49:44.418Z,26.75
2023-03-02T11:52:51.830Z,26.40
2023-03-02T11:59:04.820Z,26.48
2023-03-02T12:02:05.857Z,25.77
2023-03-02T12:05:28.322Z,27.33
2023-03-02T12:08:49.650Z,27.33
2023-03-02T12:12:17.510Z,27.65
2023-03-02T12:15:41.377Z,27.10
2023-03-02T12:18:51.250Z,26.52
2023-03-02T12:22:02.984Z,30.00
2023-03-02T12:25:19.115Z,27.45
2023-03-02T12:28:38.482Z,29.05
2023-03-02T12:31:56.600Z,27.35
2023-03-02T12:35:11.980Z,28.33
2023-03-02T12:38:32.810Z,27.27
2023-03-02T12:41:56.845Z,26.73
2023-03-02T12:45:12.112Z,27.67
2023-03-02T12:48:46.519Z,28.05
2023-03-02T12:52:04.019Z,25.80
2023-03-02T12:55:18.061Z,25.70
2023-03-02T12:58:24.683Z,26.35
2023-03-02T13:01:31.160Z,23.33
2023-03-02T13:04:32.334Z,24.88
2023-03-02T13:07:54.782Z,24.77
2023-03-02T13:11:00.611Z,27.33
2023-03-02T13:14:17.503Z,27.17
2023-03-02T13:17:32.921Z,26.98
2023-03-02T13:20:33.817Z,26.58
2023-03-02T13:23:34.953Z,25.52
2023-03-02T13:26:39.928Z,27.73
2023-03-02T13:29:41.014Z,25.25
2023-03-02T13:32:43.511Z,25.75
2023-03-02T13:35:47.949Z,24.73
2023-03-02T13:38:56.871Z,29.55
2023-03-02T13:42:01.241Z,26.15
2023-03-02T13:45:23.364Z,26.17
2023-03-02T13:48:24.808Z,27.92
2023-03-02T13:51:29.995Z,27.58
2023-03-02T13:54:37.746Z,27.08
2023-03-02T14:00:39.881Z,28.05
2023-03-02T14:03:41.251Z,26.63
2023-03-02T14:06:42.062Z,27.00
2023-03-02T14:09:44.178Z,27.15
2023-03-02T14:12:57.241Z,27.30
2023-03-02T14:15:58.160Z,26.10
2023-03-02T14:18:59.153Z,25.92
2023-03-02T14:21:59.834Z,27.17
2023-03-02T14:25:00.624Z,26.95
2023-03-02T14:28:01.475Z,27.10
2023-03-02T14:31:02.528Z,27.50
2023-03-02T14:34:03.763Z,28.00
2023-03-02T14:37:18.558Z,26.58
2023-03-02T14:40:29.102Z,27.40
2023-03-02T14:43:30.857Z,27.17
2023-03-02T14:46:32.165Z,27.40
2023-03-02T14:49:33.802Z,26.90
2023-03-02T14:52:45.719Z,26.92
2023-03-02T14:55:47.501Z,25.80
2023-03-02T14:58:52.351Z,26.50
2023-03-02T15:01:53.352Z,25.75
2023-03-02T15:04:57.595Z,26.20
2023-03-02T15:07:59.021Z,25.92
2023-03-02T15:10:59.804Z,26.88
2023-03-02T15:14:00.618Z,25.92
2023-03-02T15:17:02.023Z,26.85
2023-03-02T15:20:04.021Z,27.77
2023-03-02T15:23:05.711Z,27.38
2023-03-02T15:26:06.522Z,26.63
2023-03-02T15:29:08.584Z,26.73
2023-03-02T15:32:09.404Z,25.55
2023-03-02T15:35:12.564Z,25.08
2023-03-02T15:38:13.498Z,23.65
2023-03-02T15:41:15.534Z,25.63
2023-03-02T15:44:22.480Z,26.23
2023-03-02T15:47:25.265Z,24.92
2023-03-02T15:50:26.040Z,26.00
2023-03-02T15:53:29.146Z,26.08
2023-03-02T15:56:38.773Z,25.08
2023-03-02T15:59:44.833Z,23.17
2023-03-02T16:02:49.858Z,24.45
2023-03-02T16:05:50.855Z,26.15
2023-03-02T16:08:51.608Z,25.83
2023-03-02T16:11:53.199Z,25.08
2023-03-02T16:14:54.298Z,25.30
2023-03-02T16:17:55.344Z,25.40
2023-03-02T16:20:56.615Z,25.98
2023-03-02T16:24:03.972Z,25.23
2023-03-02T16:30:06.826Z,25.05
2023-03-02T16:33:12.192Z,26.20
2023-03-02T16:36:14.214Z,25.05
2023-03-02T16:39:15.766Z,27.65
2023-03-02T16:42:18.586Z,27.45
2023-03-02T16:45:22.309Z,26.40
2023-03-02T16:48:23.335Z,26.45
2023-03-02T16:51:25.199Z,26.65
2023-03-02T16:54:26.427Z,24.17
2023-03-02T16:57:27.569Z,26.15
2023-03-02T17:00:28.584Z,24.92
2023-03-02T17:03:29.338Z,25.27
2023-03-02T17:06:30.281Z,26.73
2023-03-02T17:09:34.857Z,25.00
2023-03-02T17:12:35.779Z,26.80
2023-03-02T17:15:37.186Z,25.40
2023-03-02T17:18:38.586Z,27.83
2023-03-02T17:21:39.381Z,27.30
2023-03-02T17:24:41.439Z,26.90
2023-03-02T17:27:45.470Z,24.15
2023-03-02T17:30:46.748Z,26.58
2023-03-02T17:33:47.832Z,27.15
2023-03-02T17:36:49.170Z,24.17
2023-03-02T17:39:51.117Z,27.55
2023-03-02T17:42:54.940Z,25.63
2023-03-02T17:45:57.601Z,25.10
2023-03-02T17:49:00.680Z,25.67
2023-03-02T17:52:01.644Z,26.65
2023-03-02T17:55:02.440Z,26.38
2023-03-02T17:58:03.289Z,27.98
2023-03-02T18:01:05.626Z,28.25
2023-03-02T18:04:07.188Z,27.55
2023-03-02T18:07:08.415Z,28.17
2023-03-02T18:10:10.223Z,27.20
2023-03-02T18:13:11.177Z,27.10
2023-03-02T18:16:12.382Z,26.23
2023-03-02T18:19:13.494Z,25.08
2023-03-02T18:22:15.121Z,26.73
2023-03-02T18:25:16.384Z,26.48
2023-03-02T18:28:17.607Z,26.80
2023-03-02T18:31:19.685Z,28.10
2023-03-02T18:34:21.484Z,28.33
2023-03-02T18:37:22.539Z,31.25
2023-03-02T18:40:23.253Z,32.78
2023-03-02T18:43:24.518Z,30.83
2023-03-02T18:46:28.760Z,28.90
2023-03-02T18:49:30.059Z,29.35
2023-03-02T18:52:30.802Z,28.98
2023-03-02T18:55:31.714Z,30.13
2023-03-02T18:58:34.297Z,28.52
2023-03-02T19:01:35.969Z,28.00
2023-03-02T19:04:37.150Z,30.35
2023-03-02T19:07:37.868Z,28.02
2023-03-02T19:10:42.419Z,28.08
2023-03-02T19:13:43.631Z,29.05
2023-03-02T19:16:44.756Z,28.35
2023-03-02T19:19:45.705Z,27.63
2023-03-02T19:22:47.726Z,28.58
2023-03-02T19:25:48.882Z,28.00
2023-03-02T19:28:49.839Z,28.80
2023-03-02T19:31:50.905Z,27.73
2023-03-02T19:34:52.267Z,28.35
2023-03-02T19:37:53.378Z,30.00
2023-03-02T19:40:54.311Z,30.50
2023-03-02T19:43:55.875Z,28.70
2023-03-02T19:46:56.673Z,29.42
2023-03-02T19:49:58.082Z,27.23
2023-03-02T19:52:59.153Z,28.15
2023-03-02T19:56:08.475Z,28.67
2023-03-02T19:59:11.273Z,28.85
2023-03-02T20:02:12.298Z,27.67
2023-03-02T20:05:13.382Z,28.65
2023-03-02T20:08:16.905Z,27.50
2023-03-02T20:11:18.520Z,28.15
2023-03-02T20:14:32.893Z,28.05
2023-03-02T20:17:34.704Z,28.52
2023-03-02T20:20:36.269Z,25.95
2023-03-02T20:23:37.896Z,29.00
2023-03-02T20:26:38.690Z,29.80
2023-03-02T20:29:43.361Z,29.92
2023-03-02T20:32:45.184Z,29.15
2023-03-02T20:35:47.370Z,30.10
2023-03-02T20:38:56.191Z,28.27
2023-03-02T20:41:58.287Z,28.75
2023-03-02T20:45:00.563Z,28.15
2023-03-02T20:48:02.598Z,29.55
2023-03-02T20:51:04.391Z,28.77
2023-03-02T20:54:06.170Z,29.80
2023-03-02T20:57:08.689Z,30.38
2023-03-02T21:00:20.941Z,26.70
2023-03-02T21:03:22.515Z,28.45
2023-03-02T21:06:23.742Z,29.33
2023-03-02T21:09:25.231Z,27.95
2023-03-02T21:12:26.347Z,29.90
2023-03-02T21:15:28.077Z,29.35
2023-03-02T21:18:28.983Z,27.92
2023-03-02T21:21:40.835Z,30.98
2023-03-02T21:24:42.562Z,29.98
2023-03-02T21:27:45.300Z,28.23
2023-03-02T21:30:46.846Z,31.17
2023-03-02T21:33:49.742Z,31.42
2023-03-02T21:36:53.785Z,30.33
2023-03-02T21:39:55.115Z,34.72
2023-03-02T21:42:57.629Z,33.08
2023-03-02T21:45:58.722Z,29.23
2023-03-02T21:49:00.197Z,27.95
2023-03-02T21:52:00.999Z,31.30
2023-03-02T21:55:01.855Z,27.75
2023-03-02T21:58:02.742Z,28.65
2023-03-02T22:01:04.042Z,30.08
2023-03-02T22:04:05.214Z,31.02
2023-03-02T22:07:06.261Z,28.85
2023-03-02T22:10:08.885Z,30.48
2023-03-02T22:13:26.777Z,27.33
2023-03-02T22:16:36.100Z,27.42
2023-03-02T22:19:38.559Z,28.98
2023-03-02T22:22:39.391Z,29.58
2023-03-02T22:25:41.402Z,29.85
2023-03-02T22:28:42.493Z,29.75
2023-03-02T22:31:50.616Z,29.25
2023-03-02T22:34:55.400Z,30.05
2023-03-02T22:38:11.855Z,28.10
2023-03-02T22:41:19.846Z,29.00
2023-03-02T22:44:20.753Z,31.50
2023-03-02T22:47:22.078Z,29.10
2023-03-02T22:50:27.295Z,28.25
2023-03-02T22:53:33.268Z,30.92
2023-03-02T22:56:43.008Z,30.17
2023-03-02T22:59:44.201Z,28.98
2023-03-02T23:02:46.194Z,30.00
2023-03-02T23:05:51.839Z,30.00
2023-03-02T23:08:56.374Z,31.50
2023-03-02T23:12:13.727Z,30.52
2023-03-02T23:15:21.179Z,28.60
2023-03-02T23:18:32.173Z,32.25
2023-03-02T23:21:41.487Z,31.17
2023-03-02T23:24:42.585Z,30.27
2023-03-02T23:27:43.269Z,29.65
2023-03-02T23:30:44.106Z,29.67
2023-03-02T23:33:45.956Z,32.20
2023-03-02T23:36:47.575Z,28.77
2023-03-02T23:39:48.519Z,32.72
2023-03-02T23:42:49.978Z,30.38
2023-03-02T23:45:51.527Z,31.30
2023-03-02T23:48:53.230Z,33.35
2023-03-02T23:51:54.456Z,31.77
2023-03-02T23:54:55.408Z,29.70
2023-03-02T23:57:56.169Z,30.20
